Amonate, Virginia
Current Conditions -  °F | °C
As of 4:55 AM on Saturday 01 Nov 2014 (Local Time) from KJFZ Reporting Station
Light Snow Light Snow  
Wind Chill: 34°   Ceiling: 300
Heat Index: 34°   Visibility: 1mi
Dew Point: 33°   Wind: 3mph
Humidity: 94%   Direction: 310°NW
Pressure: 29.81"   Gusts: NA
Location:  37.19°N, 81.64°W
Report Text: KJFZ 010855Z AUTO 31003KT 1SM -SN OVC003 01/00 A2981 RMK AO2 T00110003
Loading
Personal Weather Stations






























Interactive Weather Map
Tropical Storm Tracking
New forecast layout! Learn more

10-Day Weather Forecast

Advertisements
Track Severe Weather on mobile